createdAt,value
2023-03-22T00:00:54.495Z,85.12
2023-03-22T00:05:59.179Z,84.84
2023-03-22T00:11:01.246Z,85.00
2023-03-22T00:16:04.232Z,85.01
2023-03-22T00:21:06.360Z,85.17
2023-03-22T00:26:09.725Z,84.90
2023-03-22T00:31:12.309Z,85.00
2023-03-22T00:36:13.808Z,84.82
2023-03-22T00:41:18.778Z,84.73
2023-03-22T00:46:21.556Z,84.53
2023-03-22T00:51:23.075Z,84.58
2023-03-22T00:56:28.655Z,84.68
2023-03-22T01:01:35.734Z,84.75
2023-03-22T01:06:37.346Z,84.77
2023-03-22T01:11:39.180Z,84.60
2023-03-22T01:16:40.852Z,84.45
2023-03-22T01:21:42.585Z,84.85
2023-03-22T01:26:44.289Z,84.68
2023-03-22T01:31:45.943Z,84.49
2023-03-22T01:36:48.129Z,84.17
2023-03-22T01:41:49.807Z,84.14
2023-03-22T01:46:52.990Z,84.48
2023-03-22T01:52:00.576Z,84.39
2023-03-22T01:57:11.732Z,84.33
2023-03-22T02:02:19.124Z,84.13
2023-03-22T02:07:27.820Z,83.60
2023-03-22T02:12:37.167Z,84.03
2023-03-22T02:18:01.533Z,83.99
2023-03-22T02:23:03.022Z,84.13
2023-03-22T02:28:42.216Z,84.10
2023-03-22T02:33:52.483Z,83.97
2023-03-22T02:39:12.517Z,83.75
2023-03-22T02:44:23.363Z,83.72
2023-03-22T02:49:49.319Z,83.61
2023-03-22T02:55:04.199Z,83.42
2023-03-22T03:00:11.438Z,82.62
2023-03-22T03:05:14.884Z,81.85
2023-03-22T03:10:19.042Z,82.39
2023-03-22T03:15:23.479Z,82.21
2023-03-22T03:20:57.322Z,81.99
2023-03-22T03:26:02.305Z,82.30
2023-03-22T03:31:09.660Z,82.32
2023-03-22T03:36:18.103Z,81.85
2023-03-22T03:41:27.116Z,81.62
2023-03-22T03:46:29.559Z,81.66
2023-03-22T03:51:33.811Z,82.41
2023-03-22T03:56:35.398Z,82.19
2023-03-22T04:01:37.284Z,82.14
2023-03-22T04:06:46.034Z,82.97
2023-03-22T04:11:56.249Z,83.67
2023-03-22T04:16:57.930Z,83.44
2023-03-22T04:22:01.397Z,83.35
2023-03-22T04:27:05.471Z,82.91
2023-03-22T04:32:27.184Z,82.66
2023-03-22T04:37:33.653Z,82.55
2023-03-22T04:42:57.369Z,82.88
2023-03-22T04:48:10.614Z,82.79
2023-03-22T04:53:12.653Z,82.79
2023-03-22T04:58:16.145Z,82.82
2023-03-22T05:03:19.138Z,82.80
2023-03-22T05:08:22.535Z,82.73
2023-03-22T05:13:26.972Z,83.35
2023-03-22T05:18:29.286Z,83.34
2023-03-22T05:23:32.932Z,82.72
2023-03-22T05:28:35.731Z,83.13
2023-03-22T05:33:44.341Z,83.36
2023-03-22T05:38:48.846Z,83.35
2023-03-22T05:43:52.429Z,83.58
2023-03-22T05:48:56.098Z,83.19
2023-03-22T05:53:57.817Z,83.14
2023-03-22T05:59:06.944Z,83.14
2023-03-22T06:04:09.463Z,83.48
2023-03-22T06:09:40.200Z,83.47
2023-03-22T06:14:45.366Z,83.94
2023-03-22T06:19:56.047Z,83.56
2023-03-22T06:24:58.976Z,83.07
2023-03-22T06:30:10.293Z,83.24
2023-03-22T06:35:29.350Z,83.01
2023-03-22T06:40:31.016Z,83.25
2023-03-22T06:45:33.436Z,82.68
2023-03-22T06:50:39.155Z,82.63
2023-03-22T06:55:46.189Z,82.82
2023-03-22T07:00:57.509Z,82.45
2023-03-22T07:06:05.845Z,82.46
2023-03-22T07:11:09.253Z,82.51
2023-03-22T07:16:11.977Z,82.21
2023-03-22T07:21:17.541Z,82.11
2023-03-22T07:26:25.953Z,81.91
2023-03-22T07:31:31.415Z,82.20
2023-03-22T07:36:38.276Z,82.10
2023-03-22T07:41:43.256Z,82.12
2023-03-22T07:46:59.970Z,82.14
2023-03-22T07:52:11.325Z,81.66
2023-03-22T07:57:12.904Z,80.51
2023-03-22T08:02:20.574Z,78.82
2023-03-22T08:07:26.202Z,78.52
2023-03-22T08:12:28.684Z,77.41
2023-03-22T08:17:39.744Z,76.68
2023-03-22T08:22:46.733Z,75.24
2023-03-22T08:28:06.824Z,74.81
2023-03-22T08:33:08.888Z,73.89
2023-03-22T08:38:11.058Z,73.10
2023-03-22T08:43:20.244Z,72.97
2023-03-22T08:48:22.049Z,72.92
2023-03-22T08:53:58.811Z,71.37
2023-03-22T08:59:26.542Z,71.43
2023-03-22T09:04:45.515Z,71.17
2023-03-22T09:09:47.196Z,70.79
2023-03-22T09:14:49.921Z,70.43
2023-03-22T09:20:02.684Z,69.33
2023-03-22T09:25:12.999Z,69.52
2023-03-22T09:30:17.382Z,69.08
2023-03-22T09:35:19.379Z,68.64
2023-03-22T09:40:49.930Z,68.05
2023-03-22T09:45:52.375Z,68.35
2023-03-22T09:50:55.287Z,68.26
2023-03-22T09:56:14.247Z,67.89
2023-03-22T10:01:29.092Z,66.44
2023-03-22T10:06:31.655Z,66.56
2023-03-22T10:11:39.009Z,65.75
2023-03-22T10:16:41.063Z,65.95
2023-03-22T10:21:43.616Z,65.66
2023-03-22T10:26:47.469Z,65.47
2023-03-22T10:31:49.029Z,64.54
2023-03-22T10:36:52.668Z,63.47
2023-03-22T10:41:58.091Z,63.67
2023-03-22T10:47:07.707Z,64.18
2023-03-22T10:52:23.972Z,61.74
2023-03-22T10:57:28.354Z,61.64
2023-03-22T11:02:32.689Z,60.50
2023-03-22T11:07:37.437Z,61.64
2023-03-22T11:12:47.095Z,62.80
2023-03-22T11:17:49.221Z,62.82
2023-03-22T11:22:51.250Z,61.91
2023-03-22T11:27:58.796Z,61.50
2023-03-22T11:33:21.135Z,61.93
2023-03-22T11:38:47.372Z,61.54
2023-03-22T11:43:56.769Z,61.48
2023-03-22T11:49:04.276Z,61.83
2023-03-22T11:54:16.597Z,61.21
2023-03-22T11:59:37.280Z,59.70
2023-03-22T12:04:41.714Z,59.61
2023-03-22T12:10:00.073Z,59.53
2023-03-22T12:15:11.119Z,59.34
2023-03-22T12:20:32.141Z,59.88
2023-03-22T12:25:36.090Z,59.60
2023-03-22T12:30:43.251Z,59.50
2023-03-22T12:35:46.791Z,59.41
2023-03-22T12:40:49.600Z,60.50
2023-03-22T12:45:58.375Z,59.97
2023-03-22T12:51:04.560Z,59.33
2023-03-22T12:56:06.627Z,57.96
2023-03-22T13:01:19.724Z,56.50
2023-03-22T13:06:46.298Z,55.29
2023-03-22T13:12:26.931Z,55.22
2023-03-22T13:17:28.774Z,56.23
2023-03-22T13:22:36.434Z,54.95
2023-03-22T13:27:57.171Z,55.92
2023-03-22T13:33:14.751Z,55.66
2023-03-22T13:38:22.257Z,53.41
2023-03-22T13:43:29.050Z,53.81
2023-03-22T13:48:39.606Z,53.89
2023-03-22T13:53:47.006Z,53.70
2023-03-22T13:58:52.824Z,54.07
2023-03-22T14:03:59.862Z,53.93
2023-03-22T14:09:13.342Z,54.61
2023-03-22T14:14:29.872Z,55.29
2023-03-22T14:19:33.377Z,55.63
